sensor_id;sensor_type;location;lat;lon;timestamp;P1;durP1;ratioP1;P2;durP2;ratioP2
46815;SDS011;32787;53.316;8.670;2024-02-26T00:01:23;0.00;;;0.00;;
46815;SDS011;32787;53.316;8.670;2024-02-26T00:03:49;0.00;;;0.00;;
46815;SDS011;32787;53.316;8.670;2024-02-26T00:06:15;0.00;;;0.00;;
46815;SDS011;32787;53.316;8.670;2024-02-26T00:08:40;0.00;;;0.00;;
46815;SDS011;32787;53.316;8.670;2024-02-26T00:11:06;0.00;;;0.00;;
46815;SDS011;32787;53.316;8.670;2024-02-26T00:13:32;0.00;;;0.00;;
46815;SDS011;32787;53.316;8.670;2024-02-26T00:15:57;0.00;;;0.00;;
46815;SDS011;32787;53.316;8.670;2024-02-26T00:18:23;0.00;;;0.00;;
46815;SDS011;32787;53.316;8.670;2024-02-26T00:20:49;0.00;;;0.00;;
46815;SDS011;32787;53.316;8.670;2024-02-26T00:23:15;0.00;;;0.00;;
46815;SDS011;32787;53.316;8.670;2024-02-26T00:25:40;0.00;;;0.00;;
46815;SDS011;32787;53.316;8.670;2024-02-26T00:28:08;0.00;;;0.00;;
46815;SDS011;32787;53.316;8.670;2024-02-26T00:30:35;0.00;;;0.00;;
46815;SDS011;32787;53.316;8.670;2024-02-26T00:33:01;0.00;;;0.00;;
46815;SDS011;32787;53.316;8.670;2024-02-26T00:35:26;0.00;;;0.00;;
46815;SDS011;32787;53.316;8.670;2024-02-26T00:37:52;0.00;;;0.00;;
46815;SDS011;32787;53.316;8.670;2024-02-26T00:40:18;0.00;;;0.00;;
46815;SDS011;32787;53.316;8.670;2024-02-26T00:42:44;0.00;;;0.00;;
46815;SDS011;32787;53.316;8.670;2024-02-26T00:45:11;0.00;;;0.00;;
46815;SDS011;32787;53.316;8.670;2024-02-26T00:47:37;0.00;;;0.00;;
46815;SDS011;32787;53.316;8.670;2024-02-26T00:50:06;0.00;;;0.00;;
46815;SDS011;32787;53.316;8.670;2024-02-26T00:52:32;0.00;;;0.00;;
46815;SDS011;32787;53.316;8.670;2024-02-26T00:54:57;0.00;;;0.00;;
46815;SDS011;32787;53.316;8.670;2024-02-26T00:57:23;0.00;;;0.00;;
46815;SDS011;32787;53.316;8.670;2024-02-26T00:59:49;0.00;;;0.00;;
46815;SDS011;32787;53.316;8.670;2024-02-26T01:02:15;0.00;;;0.00;;
46815;SDS011;32787;53.316;8.670;2024-02-26T01:04:41;0.00;;;0.00;;
46815;SDS011;32787;53.316;8.670;2024-02-26T01:07:07;0.00;;;0.00;;
46815;SDS011;32787;53.316;8.670;2024-02-26T01:09:32;0.00;;;0.00;;
46815;SDS011;32787;53.316;8.670;2024-02-26T01:11:58;0.00;;;0.00;;
46815;SDS011;32787;53.316;8.670;2024-02-26T01:14:24;0.00;;;0.00;;
46815;SDS011;32787;53.316;8.670;2024-02-26T01:16:49;0.00;;;0.00;;
46815;SDS011;32787;53.316;8.670;2024-02-26T01:19:15;0.00;;;0.00;;
46815;SDS011;32787;53.316;8.670;2024-02-26T01:21:40;0.00;;;0.00;;
46815;SDS011;32787;53.316;8.670;2024-02-26T01:24:06;0.00;;;0.00;;
46815;SDS011;32787;53.316;8.670;2024-02-26T01:26:32;0.03;;;0.03;;
46815;SDS011;32787;53.316;8.670;2024-02-26T01:28:57;0.05;;;0.05;;
46815;SDS011;32787;53.316;8.670;2024-02-26T01:31:23;0.00;;;0.00;;
46815;SDS011;32787;53.316;8.670;2024-02-26T01:33:49;0.00;;;0.00;;
46815;SDS011;32787;53.316;8.670;2024-02-26T01:36:14;0.03;;;0.03;;
46815;SDS011;32787;53.316;8.670;2024-02-26T01:38:40;0.00;;;0.00;;
46815;SDS011;32787;53.316;8.670;2024-02-26T01:41:06;0.00;;;0.00;;
46815;SDS011;32787;53.316;8.670;2024-02-26T01:43:31;0.00;;;0.00;;
46815;SDS011;32787;53.316;8.670;2024-02-26T01:45:57;0.00;;;0.00;;
46815;SDS011;32787;53.316;8.670;2024-02-26T01:48:23;0.00;;;0.00;;
46815;SDS011;32787;53.316;8.670;2024-02-26T01:50:49;0.00;;;0.00;;
46815;SDS011;32787;53.316;8.670;2024-02-26T01:53:15;0.00;;;0.00;;
46815;SDS011;32787;53.316;8.670;2024-02-26T01:55:42;0.00;;;0.00;;
46815;SDS011;32787;53.316;8.670;2024-02-26T01:58:08;0.00;;;0.00;;
46815;SDS011;32787;53.316;8.670;2024-02-26T02:00:34;0.00;;;0.00;;
46815;SDS011;32787;53.316;8.670;2024-02-26T02:03:00;0.00;;;0.00;;
46815;SDS011;32787;53.316;8.670;2024-02-26T02:05:28;0.00;;;0.00;;
46815;SDS011;32787;53.316;8.670;2024-02-26T02:07:54;0.00;;;0.00;;
46815;SDS011;32787;53.316;8.670;2024-02-26T02:10:20;0.00;;;0.00;;
46815;SDS011;32787;53.316;8.670;2024-02-26T02:12:50;0.03;;;0.03;;
46815;SDS011;32787;53.316;8.670;2024-02-26T02:15:16;0.00;;;0.00;;
46815;SDS011;32787;53.316;8.670;2024-02-26T02:17:43;0.00;;;0.00;;
46815;SDS011;32787;53.316;8.670;2024-02-26T02:20:09;0.00;;;0.00;;
46815;SDS011;32787;53.316;8.670;2024-02-26T02:22:39;0.00;;;0.00;;
46815;SDS011;32787;53.316;8.670;2024-02-26T02:25:05;0.03;;;0.03;;
46815;SDS011;32787;53.316;8.670;2024-02-26T02:27:31;0.00;;;0.00;;
46815;SDS011;32787;53.316;8.670;2024-02-26T02:29:57;0.00;;;0.00;;
46815;SDS011;32787;53.316;8.670;2024-02-26T02:32:23;0.00;;;0.00;;
46815;SDS011;32787;53.316;8.670;2024-02-26T02:34:50;0.00;;;0.00;;
46815;SDS011;32787;53.316;8.670;2024-02-26T02:37:16;0.00;;;0.00;;
46815;SDS011;32787;53.316;8.670;2024-02-26T02:39:42;0.00;;;0.00;;
46815;SDS011;32787;53.316;8.670;2024-02-26T02:42:08;0.00;;;0.00;;
46815;SDS011;32787;53.316;8.670;2024-02-26T02:44:34;0.00;;;0.00;;
46815;SDS011;32787;53.316;8.670;2024-02-26T02:47:00;0.00;;;0.00;;
46815;SDS011;32787;53.316;8.670;2024-02-26T02:49:25;0.00;;;0.00;;
46815;SDS011;32787;53.316;8.670;2024-02-26T02:51:51;0.00;;;0.00;;
46815;SDS011;32787;53.316;8.670;2024-02-26T02:54:19;0.00;;;0.00;;
46815;SDS011;32787;53.316;8.670;2024-02-26T02:56:45;0.00;;;0.00;;
46815;SDS011;32787;53.316;8.670;2024-02-26T02:59:10;0.00;;;0.00;;
46815;SDS011;32787;53.316;8.670;2024-02-26T03:01:36;0.00;;;0.00;;
46815;SDS011;32787;53.316;8.670;2024-02-26T03:04:02;0.00;;;0.00;;
46815;SDS011;32787;53.316;8.670;2024-02-26T03:06:27;0.00;;;0.00;;
46815;SDS011;32787;53.316;8.670;2024-02-26T03:08:53;0.00;;;0.00;;
46815;SDS011;32787;53.316;8.670;2024-02-26T03:11:19;0.00;;;0.00;;
46815;SDS011;32787;53.316;8.670;2024-02-26T03:13:45;0.00;;;0.00;;
46815;SDS011;32787;53.316;8.670;2024-02-26T03:16:11;0.00;;;0.00;;
46815;SDS011;32787;53.316;8.670;2024-02-26T03:18:40;0.00;;;0.00;;
46815;SDS011;32787;53.316;8.670;2024-02-26T03:21:06;0.00;;;0.00;;
46815;SDS011;32787;53.316;8.670;2024-02-26T03:23:32;0.00;;;0.00;;
46815;SDS011;32787;53.316;8.670;2024-02-26T03:26:02;0.00;;;0.00;;
46815;SDS011;32787;53.316;8.670;2024-02-26T03:28:28;0.00;;;0.00;;
46815;SDS011;32787;53.316;8.670;2024-02-26T03:30:54;0.00;;;0.00;;
46815;SDS011;32787;53.316;8.670;2024-02-26T03:33:20;0.00;;;0.00;;
46815;SDS011;32787;53.316;8.670;2024-02-26T03:35:46;0.00;;;0.00;;
46815;SDS011;32787;53.316;8.670;2024-02-26T03:38:11;0.00;;;0.00;;
46815;SDS011;32787;53.316;8.670;2024-02-26T03:40:37;0.00;;;0.00;;
46815;SDS011;32787;53.316;8.670;2024-02-26T03:43:03;0.00;;;0.00;;
46815;SDS011;32787;53.316;8.670;2024-02-26T03:45:32;0.00;;;0.00;;
46815;SDS011;32787;53.316;8.670;2024-02-26T03:47:58;0.00;;;0.00;;
46815;SDS011;32787;53.316;8.670;2024-02-26T03:50:23;0.00;;;0.00;;
46815;SDS011;32787;53.316;8.670;2024-02-26T03:52:49;0.00;;;0.00;;
46815;SDS011;32787;53.316;8.670;2024-02-26T03:55:15;0.00;;;0.00;;
46815;SDS011;32787;53.316;8.670;2024-02-26T03:57:40;0.00;;;0.00;;
46815;SDS011;32787;53.316;8.670;2024-02-26T04:00:07;0.00;;;0.00;;
46815;SDS011;32787;53.316;8.670;2024-02-26T04:02:33;0.00;;;0.00;;
46815;SDS011;32787;53.316;8.670;2024-02-26T04:04:59;0.00;;;0.00;;
46815;SDS011;32787;53.316;8.670;2024-02-26T04:07:25;0.00;;;0.00;;
46815;SDS011;32787;53.316;8.670;2024-02-26T04:09:50;0.00;;;0.00;;
46815;SDS011;32787;53.316;8.670;2024-02-26T04:12:16;0.00;;;0.00;;
46815;SDS011;32787;53.316;8.670;2024-02-26T04:14:41;0.00;;;0.00;;
46815;SDS011;32787;53.316;8.670;2024-02-26T04:17:07;0.00;;;0.00;;
46815;SDS011;32787;53.316;8.670;2024-02-26T04:19:33;0.00;;;0.00;;
46815;SDS011;32787;53.316;8.670;2024-02-26T04:21:59;0.00;;;0.00;;
46815;SDS011;32787;53.316;8.670;2024-02-26T04:24:25;0.00;;;0.00;;
46815;SDS011;32787;53.316;8.670;2024-02-26T04:26:50;0.00;;;0.00;;
46815;SDS011;32787;53.316;8.670;2024-02-26T04:29:16;0.00;;;0.00;;
46815;SDS011;32787;53.316;8.670;2024-02-26T04:31:42;0.00;;;0.00;;
46815;SDS011;32787;53.316;8.670;2024-02-26T04:34:08;0.00;;;0.00;;
46815;SDS011;32787;53.316;8.670;2024-02-26T04:36:33;0.00;;;0.00;;
46815;SDS011;32787;53.316;8.670;2024-02-26T04:38:59;0.00;;;0.00;;
46815;SDS011;32787;53.316;8.670;2024-02-26T04:41:25;0.00;;;0.00;;
46815;SDS011;32787;53.316;8.670;2024-02-26T04:43:50;0.00;;;0.00;;
46815;SDS011;32787;53.316;8.670;2024-02-26T04:46:16;0.00;;;0.00;;
46815;SDS011;32787;53.316;8.670;2024-02-26T04:48:41;0.00;;;0.00;;
46815;SDS011;32787;53.316;8.670;2024-02-26T04:51:07;0.00;;;0.00;;
46815;SDS011;32787;53.316;8.670;2024-02-26T04:53:33;0.00;;;0.00;;
46815;SDS011;32787;53.316;8.670;2024-02-26T04:55:58;0.00;;;0.00;;
46815;SDS011;32787;53.316;8.670;2024-02-26T04:58:24;2.42;;;1.80;;
46815;SDS011;32787;53.316;8.670;2024-02-26T05:00:50;233.88;;;61.80;;
46815;SDS011;32787;53.316;8.670;2024-02-26T05:03:15;44.53;;;11.07;;
46815;SDS011;32787;53.316;8.670;2024-02-26T05:05:44;46.65;;;14.00;;
46815;SDS011;32787;53.316;8.670;2024-02-26T05:08:10;362.25;;;124.13;;
46815;SDS011;32787;53.316;8.670;2024-02-26T05:10:39;347.57;;;95.83;;
46815;SDS011;32787;53.316;8.670;2024-02-26T05:13:06;354.13;;;98.65;;
46815;SDS011;32787;53.316;8.670;2024-02-26T05:15:32;336.57;;;132.20;;
46815;SDS011;32787;53.316;8.670;2024-02-26T05:17:58;9.07;;;3.27;;
46815;SDS011;32787;53.316;8.670;2024-02-26T05:20:24;130.80;;;38.33;;
46815;SDS011;32787;53.316;8.670;2024-02-26T05:22:50;82.97;;;38.93;;
46815;SDS011;32787;53.316;8.670;2024-02-26T05:25:15;83.23;;;34.77;;
46815;SDS011;32787;53.316;8.670;2024-02-26T05:27:42;79.13;;;32.40;;
46815;SDS011;32787;53.316;8.670;2024-02-26T05:30:09;58.07;;;29.50;;
46815;SDS011;32787;53.316;8.670;2024-02-26T05:32:35;76.50;;;31.70;;
46815;SDS011;32787;53.316;8.670;2024-02-26T05:35:01;40.20;;;26.40;;
46815;SDS011;32787;53.316;8.670;2024-02-26T05:37:28;65.27;;;29.80;;
46815;SDS011;32787;53.316;8.670;2024-02-26T05:39:54;67.47;;;30.60;;
46815;SDS011;32787;53.316;8.670;2024-02-26T05:42:20;54.57;;;28.57;;
46815;SDS011;32787;53.316;8.670;2024-02-26T05:44:46;46.27;;;26.60;;
46815;SDS011;32787;53.316;8.670;2024-02-26T05:47:11;48.07;;;26.87;;
46815;SDS011;32787;53.316;8.670;2024-02-26T05:49:38;56.33;;;28.67;;
46815;SDS011;32787;53.316;8.670;2024-02-26T05:52:04;57.70;;;28.93;;
46815;SDS011;32787;53.316;8.670;2024-02-26T05:54:30;55.10;;;29.67;;
46815;SDS011;32787;53.316;8.670;2024-02-26T05:56:57;34.42;;;23.10;;
46815;SDS011;32787;53.316;8.670;2024-02-26T05:59:23;28.08;;;20.42;;
46815;SDS011;32787;53.316;8.670;2024-02-26T06:01:49;24.27;;;18.38;;
46815;SDS011;32787;53.316;8.670;2024-02-26T06:04:14;24.33;;;18.48;;
46815;SDS011;32787;53.316;8.670;2024-02-26T06:06:42;19.33;;;15.25;;
46815;SDS011;32787;53.316;8.670;2024-02-26T06:09:07;21.98;;;17.70;;
46815;SDS011;32787;53.316;8.670;2024-02-26T06:11:33;20.10;;;16.27;;
46815;SDS011;32787;53.316;8.670;2024-02-26T06:13:58;15.43;;;12.85;;
46815;SDS011;32787;53.316;8.670;2024-02-26T06:16:24;15.23;;;12.88;;
46815;SDS011;32787;53.316;8.670;2024-02-26T06:18:50;15.98;;;13.48;;
46815;SDS011;32787;53.316;8.670;2024-02-26T06:21:15;14.82;;;12.52;;
46815;SDS011;32787;53.316;8.670;2024-02-26T06:23:41;17.98;;;14.95;;
46815;SDS011;32787;53.316;8.670;2024-02-26T06:26:07;16.30;;;13.50;;
46815;SDS011;32787;53.316;8.670;2024-02-26T06:28:32;13.90;;;11.98;;
46815;SDS011;32787;53.316;8.670;2024-02-26T06:31:00;15.63;;;13.23;;
46815;SDS011;32787;53.316;8.670;2024-02-26T06:33:26;18.10;;;15.07;;
46815;SDS011;32787;53.316;8.670;2024-02-26T06:35:52;18.38;;;15.32;;
46815;SDS011;32787;53.316;8.670;2024-02-26T06:38:18;18.25;;;14.68;;
46815;SDS011;32787;53.316;8.670;2024-02-26T06:40:44;18.83;;;14.88;;
46815;SDS011;32787;53.316;8.670;2024-02-26T06:43:11;16.85;;;14.23;;
46815;SDS011;32787;53.316;8.670;2024-02-26T06:45:36;17.65;;;14.57;;
46815;SDS011;32787;53.316;8.670;2024-02-26T06:48:02;18.45;;;15.07;;
46815;SDS011;32787;53.316;8.670;2024-02-26T06:50:27;21.13;;;16.92;;
46815;SDS011;32787;53.316;8.670;2024-02-26T06:52:53;18.80;;;15.00;;
46815;SDS011;32787;53.316;8.670;2024-02-26T06:55:19;17.88;;;15.20;;
46815;SDS011;32787;53.316;8.670;2024-02-26T06:57:44;15.32;;;13.73;;
46815;SDS011;32787;53.316;8.670;2024-02-26T07:00:10;11.35;;;9.25;;
46815;SDS011;32787;53.316;8.670;2024-02-26T07:02:39;8.75;;;7.82;;
46815;SDS011;32787;53.316;8.670;2024-02-26T07:05:05;18.63;;;15.77;;
46815;SDS011;32787;53.316;8.670;2024-02-26T07:07:32;18.13;;;15.15;;
46815;SDS011;32787;53.316;8.670;2024-02-26T07:09:57;13.80;;;11.98;;
46815;SDS011;32787;53.316;8.670;2024-02-26T07:12:23;12.52;;;11.07;;
46815;SDS011;32787;53.316;8.670;2024-02-26T07:14:49;9.32;;;8.35;;
46815;SDS011;32787;53.316;8.670;2024-02-26T07:17:15;15.93;;;14.02;;
46815;SDS011;32787;53.316;8.670;2024-02-26T07:19:41;15.25;;;13.63;;
46815;SDS011;32787;53.316;8.670;2024-02-26T07:22:07;17.90;;;16.33;;
46815;SDS011;32787;53.316;8.670;2024-02-26T07:24:33;9.85;;;8.82;;
46815;SDS011;32787;53.316;8.670;2024-02-26T07:26:59;8.57;;;7.72;;
46815;SDS011;32787;53.316;8.670;2024-02-26T07:29:24;5.45;;;4.93;;
46815;SDS011;32787;53.316;8.670;2024-02-26T07:31:50;16.38;;;14.95;;
46815;SDS011;32787;53.316;8.670;2024-02-26T07:34:16;1.60;;;1.48;;
46815;SDS011;32787;53.316;8.670;2024-02-26T07:36:42;2.28;;;2.13;;
46815;SDS011;32787;53.316;8.670;2024-02-26T07:39:07;0.75;;;0.75;;
46815;SDS011;32787;53.316;8.670;2024-02-26T07:41:33;1.30;;;1.25;;
46815;SDS011;32787;53.316;8.670;2024-02-26T07:43:59;1.20;;;1.00;;
46815;SDS011;32787;53.316;8.670;2024-02-26T07:46:25;9.18;;;8.23;;
46815;SDS011;32787;53.316;8.670;2024-02-26T07:48:50;8.13;;;7.32;;
46815;SDS011;32787;53.316;8.670;2024-02-26T07:51:16;1.70;;;1.55;;
46815;SDS011;32787;53.316;8.670;2024-02-26T07:53:44;1.10;;;1.02;;
46815;SDS011;32787;53.316;8.670;2024-02-26T07:56:10;3.10;;;2.92;;
46815;SDS011;32787;53.316;8.670;2024-02-26T07:58:36;2.78;;;2.53;;
46815;SDS011;32787;53.316;8.670;2024-02-26T08:01:01;2.03;;;1.88;;
46815;SDS011;32787;53.316;8.670;2024-02-26T08:03:27;2.05;;;1.88;;
46815;SDS011;32787;53.316;8.670;2024-02-26T08:05:53;3.55;;;3.30;;
46815;SDS011;32787;53.316;8.670;2024-02-26T08:08:19;0.85;;;0.75;;
46815;SDS011;32787;53.316;8.670;2024-02-26T08:10:45;0.30;;;0.30;;
46815;SDS011;32787;53.316;8.670;2024-02-26T08:13:11;0.10;;;0.10;;
46815;SDS011;32787;53.316;8.670;2024-02-26T08:15:36;0.00;;;0.00;;
46815;SDS011;32787;53.316;8.670;2024-02-26T08:18:04;0.00;;;0.00;;
46815;SDS011;32787;53.316;8.670;2024-02-26T08:20:30;0.00;;;0.00;;
46815;SDS011;32787;53.316;8.670;2024-02-26T08:22:56;0.00;;;0.00;;
46815;SDS011;32787;53.316;8.670;2024-02-26T08:25:23;0.00;;;0.00;;
46815;SDS011;32787;53.316;8.670;2024-02-26T08:27:49;0.00;;;0.00;;
46815;SDS011;32787;53.316;8.670;2024-02-26T08:30:15;0.00;;;0.00;;
46815;SDS011;32787;53.316;8.670;2024-02-26T08:32:48;0.00;;;0.00;;
46815;SDS011;32787;53.316;8.670;2024-02-26T08:35:14;0.00;;;0.00;;
46815;SDS011;32787;53.316;8.670;2024-02-26T08:37:39;0.00;;;0.00;;
46815;SDS011;32787;53.316;8.670;2024-02-26T08:40:06;0.00;;;0.00;;
46815;SDS011;32787;53.316;8.670;2024-02-26T08:42:32;0.00;;;0.00;;
46815;SDS011;32787;53.316;8.670;2024-02-26T08:44:58;0.00;;;0.00;;
46815;SDS011;32787;53.316;8.670;2024-02-26T08:47:26;0.00;;;0.00;;
46815;SDS011;32787;53.316;8.670;2024-02-26T08:49:53;0.00;;;0.00;;
46815;SDS011;32787;53.316;8.670;2024-02-26T08:52:18;0.00;;;0.00;;
46815;SDS011;32787;53.316;8.670;2024-02-26T08:54:44;0.00;;;0.00;;
46815;SDS011;32787;53.316;8.670;2024-02-26T08:57:10;0.00;;;0.00;;
46815;SDS011;32787;53.316;8.670;2024-02-26T08:59:35;0.00;;;0.00;;
46815;SDS011;32787;53.316;8.670;2024-02-26T09:02:01;0.00;;;0.00;;
46815;SDS011;32787;53.316;8.670;2024-02-26T09:04:27;0.00;;;0.00;;
46815;SDS011;32787;53.316;8.670;2024-02-26T09:06:53;1.17;;;1.08;;
46815;SDS011;32787;53.316;8.670;2024-02-26T09:09:19;1.33;;;1.25;;
46815;SDS011;32787;53.316;8.670;2024-02-26T09:11:47;0.43;;;0.25;;
46815;SDS011;32787;53.316;8.670;2024-02-26T09:14:13;0.00;;;0.00;;
46815;SDS011;32787;53.316;8.670;2024-02-26T09:16:39;0.05;;;0.03;;
46815;SDS011;32787;53.316;8.670;2024-02-26T09:19:05;0.00;;;0.00;;
46815;SDS011;32787;53.316;8.670;2024-02-26T09:21:30;0.70;;;0.63;;
46815;SDS011;32787;53.316;8.670;2024-02-26T09:23:57;1.55;;;1.40;;
46815;SDS011;32787;53.316;8.670;2024-02-26T09:26:23;1.40;;;1.33;;
46815;SDS011;32787;53.316;8.670;2024-02-26T09:28:48;0.20;;;0.20;;
46815;SDS011;32787;53.316;8.670;2024-02-26T09:31:14;2.92;;;2.80;;
46815;SDS011;32787;53.316;8.670;2024-02-26T09:33:42;7.65;;;7.20;;
46815;SDS011;32787;53.316;8.670;2024-02-26T09:36:07;0.00;;;0.00;;
46815;SDS011;32787;53.316;8.670;2024-02-26T09:38:34;5.50;;;5.03;;
46815;SDS011;32787;53.316;8.670;2024-02-26T09:41:03;10.43;;;9.55;;
46815;SDS011;32787;53.316;8.670;2024-02-26T09:43:32;21.90;;;20.42;;
46815;SDS011;32787;53.316;8.670;2024-02-26T09:46:01;10.18;;;9.43;;
46815;SDS011;32787;53.316;8.670;2024-02-26T09:48:28;16.55;;;15.35;;
46815;SDS011;32787;53.316;8.670;2024-02-26T09:50:55;10.25;;;9.30;;
46815;SDS011;32787;53.316;8.670;2024-02-26T09:53:21;3.65;;;3.28;;
46815;SDS011;32787;53.316;8.670;2024-02-26T09:55:47;2.22;;;2.08;;
46815;SDS011;32787;53.316;8.670;2024-02-26T09:58:13;1.00;;;0.93;;
46815;SDS011;32787;53.316;8.670;2024-02-26T10:03:13;1.88;;;1.73;;
46815;SDS011;32787;53.316;8.670;2024-02-26T10:05:40;1.08;;;0.88;;
46815;SDS011;32787;53.316;8.670;2024-02-26T10:08:06;5.07;;;4.60;;
46815;SDS011;32787;53.316;8.670;2024-02-26T10:10:34;0.00;;;0.00;;
46815;SDS011;32787;53.316;8.670;2024-02-26T10:13:00;6.28;;;5.72;;
46815;SDS011;32787;53.316;8.670;2024-02-26T10:15:27;10.02;;;9.10;;
46815;SDS011;32787;53.316;8.670;2024-02-26T10:17:53;10.15;;;9.20;;
46815;SDS011;32787;53.316;8.670;2024-02-26T10:20:19;9.30;;;8.45;;
46815;SDS011;32787;53.316;8.670;2024-02-26T10:22:48;9.98;;;9.05;;
46815;SDS011;32787;53.316;8.670;2024-02-26T10:25:14;7.63;;;6.95;;
46815;SDS011;32787;53.316;8.670;2024-02-26T10:27:40;7.55;;;6.88;;
46815;SDS011;32787;53.316;8.670;2024-02-26T10:30:17;5.80;;;5.30;;
46815;SDS011;32787;53.316;8.670;2024-02-26T10:32:44;5.55;;;5.07;;
46815;SDS011;32787;53.316;8.670;2024-02-26T10:35:11;5.28;;;4.80;;
46815;SDS011;32787;53.316;8.670;2024-02-26T10:37:38;2.70;;;2.47;;
46815;SDS011;32787;53.316;8.670;2024-02-26T10:40:05;2.35;;;2.20;;
46815;SDS011;32787;53.316;8.670;2024-02-26T10:42:34;3.30;;;3.05;;
46815;SDS011;32787;53.316;8.670;2024-02-26T10:45:00;2.80;;;2.55;;
46815;SDS011;32787;53.316;8.670;2024-02-26T10:47:27;4.78;;;4.38;;
46815;SDS011;32787;53.316;8.670;2024-02-26T10:49:55;2.33;;;2.17;;
46815;SDS011;32787;53.316;8.670;2024-02-26T10:52:21;2.00;;;1.85;;
46815;SDS011;32787;53.316;8.670;2024-02-26T10:54:50;3.15;;;2.90;;
46815;SDS011;32787;53.316;8.670;2024-02-26T10:57:22;6.47;;;5.93;;
46815;SDS011;32787;53.316;8.670;2024-02-26T10:59:49;7.40;;;6.78;;
46815;SDS011;32787;53.316;8.670;2024-02-26T11:02:16;5.57;;;5.10;;
46815;SDS011;32787;53.316;8.670;2024-02-26T11:04:42;7.47;;;6.80;;
46815;SDS011;32787;53.316;8.670;2024-02-26T11:07:10;7.43;;;6.75;;
46815;SDS011;32787;53.316;8.670;2024-02-26T11:09:37;4.88;;;4.45;;
46815;SDS011;32787;53.316;8.670;2024-02-26T11:12:08;5.22;;;4.78;;
46815;SDS011;32787;53.316;8.670;2024-02-26T11:14:38;2.30;;;2.15;;
46815;SDS011;32787;53.316;8.670;2024-02-26T11:17:05;0.57;;;0.55;;
46815;SDS011;32787;53.316;8.670;2024-02-26T11:19:33;0.47;;;0.45;;
46815;SDS011;32787;53.316;8.670;2024-02-26T11:22:01;0.20;;;0.20;;
46815;SDS011;32787;53.316;8.670;2024-02-26T11:24:27;0.00;;;0.00;;
46815;SDS011;32787;53.316;8.670;2024-02-26T11:26:54;0.00;;;0.00;;
46815;SDS011;32787;53.316;8.670;2024-02-26T11:29:34;0.00;;;0.00;;
46815;SDS011;32787;53.316;8.670;2024-02-26T11:32:04;0.00;;;0.00;;
46815;SDS011;32787;53.316;8.670;2024-02-26T11:34:31;0.00;;;0.00;;
46815;SDS011;32787;53.316;8.670;2024-02-26T11:36:57;0.00;;;0.00;;
46815;SDS011;32787;53.316;8.670;2024-02-26T11:39:33;0.00;;;0.00;;
46815;SDS011;32787;53.316;8.670;2024-02-26T11:42:10;0.00;;;0.00;;
46815;SDS011;32787;53.316;8.670;2024-02-26T11:44:39;0.00;;;0.00;;
46815;SDS011;32787;53.316;8.670;2024-02-26T11:47:19;0.00;;;0.00;;
46815;SDS011;32787;53.316;8.670;2024-02-26T11:52:13;0.00;;;0.00;;
46815;SDS011;32787;53.316;8.670;2024-02-26T11:54:43;0.00;;;0.00;;
46815;SDS011;32787;53.316;8.670;2024-02-26T11:59:54;0.00;;;0.00;;
46815;SDS011;32787;53.316;8.670;2024-02-26T12:02:44;0.00;;;0.00;;
46815;SDS011;32787;53.316;8.670;2024-02-26T12:05:23;0.00;;;0.00;;
46815;SDS011;32787;53.316;8.670;2024-02-26T12:07:52;0.00;;;0.00;;
46815;SDS011;32787;53.316;8.670;2024-02-26T12:10:30;0.00;;;0.00;;
46815;SDS011;32787;53.316;8.670;2024-02-26T12:13:13;0.00;;;0.00;;
46815;SDS011;32787;53.316;8.670;2024-02-26T12:15:41;0.00;;;0.00;;
46815;SDS011;32787;53.316;8.670;2024-02-26T12:18:09;0.00;;;0.00;;
46815;SDS011;32787;53.316;8.670;2024-02-26T12:20:40;0.00;;;0.00;;
46815;SDS011;32787;53.316;8.670;2024-02-26T12:23:06;0.00;;;0.00;;
46815;SDS011;32787;53.316;8.670;2024-02-26T12:25:32;0.00;;;0.00;;
46815;SDS011;32787;53.316;8.670;2024-02-26T12:27:59;0.00;;;0.00;;
46815;SDS011;32787;53.316;8.670;2024-02-26T12:30:25;0.00;;;0.00;;
46815;SDS011;32787;53.316;8.670;2024-02-26T12:32:52;0.00;;;0.00;;
46815;SDS011;32787;53.316;8.670;2024-02-26T12:35:22;0.00;;;0.00;;
46815;SDS011;32787;53.316;8.670;2024-02-26T12:37:49;0.00;;;0.00;;
46815;SDS011;32787;53.316;8.670;2024-02-26T12:40:16;0.00;;;0.00;;
46815;SDS011;32787;53.316;8.670;2024-02-26T12:42:42;0.00;;;0.00;;
46815;SDS011;32787;53.316;8.670;2024-02-26T12:45:10;0.00;;;0.00;;
46815;SDS011;32787;53.316;8.670;2024-02-26T12:47:44;0.00;;;0.00;;
46815;SDS011;32787;53.316;8.670;2024-02-26T12:50:16;0.00;;;0.00;;
46815;SDS011;32787;53.316;8.670;2024-02-26T12:52:46;0.00;;;0.00;;
46815;SDS011;32787;53.316;8.670;2024-02-26T12:55:19;0.00;;;0.00;;
46815;SDS011;32787;53.316;8.670;2024-02-26T12:57:46;0.00;;;0.00;;
46815;SDS011;32787;53.316;8.670;2024-02-26T13:00:15;0.00;;;0.00;;
46815;SDS011;32787;53.316;8.670;2024-02-26T13:02:43;0.00;;;0.00;;
46815;SDS011;32787;53.316;8.670;2024-02-26T13:05:10;0.00;;;0.00;;
46815;SDS011;32787;53.316;8.670;2024-02-26T13:07:42;0.00;;;0.00;;
46815;SDS011;32787;53.316;8.670;2024-02-26T13:12:36;0.00;;;0.00;;
46815;SDS011;32787;53.316;8.670;2024-02-26T13:17:32;0.00;;;0.00;;
46815;SDS011;32787;53.316;8.670;2024-02-26T13:19:59;0.00;;;0.00;;
46815;SDS011;32787;53.316;8.670;2024-02-26T13:22:24;0.00;;;0.00;;
46815;SDS011;32787;53.316;8.670;2024-02-26T13:24:53;0.00;;;0.00;;
46815;SDS011;32787;53.316;8.670;2024-02-26T13:27:23;0.00;;;0.00;;
46815;SDS011;32787;53.316;8.670;2024-02-26T13:30:01;0.00;;;0.00;;
46815;SDS011;32787;53.316;8.670;2024-02-26T13:32:31;0.00;;;0.00;;
46815;SDS011;32787;53.316;8.670;2024-02-26T13:35:10;0.00;;;0.00;;
46815;SDS011;32787;53.316;8.670;2024-02-26T13:37:37;0.00;;;0.00;;
46815;SDS011;32787;53.316;8.670;2024-02-26T13:40:04;0.00;;;0.00;;
46815;SDS011;32787;53.316;8.670;2024-02-26T13:42:34;0.00;;;0.00;;
46815;SDS011;32787;53.316;8.670;2024-02-26T13:45:03;0.00;;;0.00;;
46815;SDS011;32787;53.316;8.670;2024-02-26T13:47:33;0.00;;;0.00;;
46815;SDS011;32787;53.316;8.670;2024-02-26T13:49:59;0.00;;;0.00;;
46815;SDS011;32787;53.316;8.670;2024-02-26T13:52:26;0.00;;;0.00;;
46815;SDS011;32787;53.316;8.670;2024-02-26T13:54:51;0.00;;;0.00;;
46815;SDS011;32787;53.316;8.670;2024-02-26T13:57:17;0.00;;;0.00;;
46815;SDS011;32787;53.316;8.670;2024-02-26T13:59:44;0.00;;;0.00;;
46815;SDS011;32787;53.316;8.670;2024-02-26T14:02:10;0.00;;;0.00;;
46815;SDS011;32787;53.316;8.670;2024-02-26T14:04:36;0.00;;;0.00;;
46815;SDS011;32787;53.316;8.670;2024-02-26T14:07:02;0.00;;;0.00;;
46815;SDS011;32787;53.316;8.670;2024-02-26T14:09:28;0.00;;;0.00;;
46815;SDS011;32787;53.316;8.670;2024-02-26T14:11:54;0.00;;;0.00;;
46815;SDS011;32787;53.316;8.670;2024-02-26T14:14:20;0.00;;;0.00;;
46815;SDS011;32787;53.316;8.670;2024-02-26T14:16:45;0.00;;;0.00;;
46815;SDS011;32787;53.316;8.670;2024-02-26T14:19:11;0.00;;;0.00;;
46815;SDS011;32787;53.316;8.670;2024-02-26T14:21:37;0.00;;;0.00;;
46815;SDS011;32787;53.316;8.670;2024-02-26T14:24:03;0.00;;;0.00;;
46815;SDS011;32787;53.316;8.670;2024-02-26T14:26:29;0.00;;;0.00;;
46815;SDS011;32787;53.316;8.670;2024-02-26T14:28:55;0.00;;;0.00;;
46815;SDS011;32787;53.316;8.670;2024-02-26T14:31:21;0.00;;;0.00;;
46815;SDS011;32787;53.316;8.670;2024-02-26T14:33:47;0.00;;;0.00;;
46815;SDS011;32787;53.316;8.670;2024-02-26T14:36:13;0.00;;;0.00;;
46815;SDS011;32787;53.316;8.670;2024-02-26T14:38:39;0.00;;;0.00;;
46815;SDS011;32787;53.316;8.670;2024-02-26T14:41:05;0.00;;;0.00;;
46815;SDS011;32787;53.316;8.670;2024-02-26T14:43:31;0.00;;;0.00;;
46815;SDS011;32787;53.316;8.670;2024-02-26T14:46:00;0.00;;;0.00;;
46815;SDS011;32787;53.316;8.670;2024-02-26T14:48:25;0.00;;;0.00;;
46815;SDS011;32787;53.316;8.670;2024-02-26T14:50:51;0.00;;;0.00;;
46815;SDS011;32787;53.316;8.670;2024-02-26T14:53:17;0.00;;;0.00;;